createdAt,value
2019-02-21T00:01:30.538Z,24.17
2019-02-21T00:03:59.767Z,17.87
2019-02-21T00:06:28.895Z,17.37
2019-02-21T00:08:58.018Z,17.13
2019-02-21T00:11:27.137Z,17.90
2019-02-21T00:13:56.271Z,18.10
2019-02-21T00:16:25.432Z,15.40
2019-02-21T00:18:54.836Z,16.87
2019-02-21T00:21:23.990Z,14.43
2019-02-21T00:23:53.091Z,15.23
2019-02-21T00:26:22.201Z,12.93
2019-02-21T00:28:51.320Z,15.90
2019-02-21T00:31:21.118Z,25.33
2019-02-21T00:33:50.203Z,14.43
2019-02-21T00:36:19.638Z,11.67
2019-02-21T00:39:07.808Z,15.93
2019-02-21T00:41:37.205Z,14.53
2019-02-21T00:44:06.294Z,15.97
2019-02-21T00:46:35.328Z,15.60
2019-02-21T00:49:04.455Z,19.63
2019-02-21T00:51:33.515Z,17.30
2019-02-21T00:54:02.619Z,16.60
2019-02-21T00:56:31.689Z,14.57
2019-02-21T00:59:01.507Z,17.20
2019-02-21T01:01:30.788Z,13.80
2019-02-21T01:03:59.914Z,14.50
2019-02-21T01:06:29.016Z,12.43
2019-02-21T01:08:58.371Z,16.00
2019-02-21T01:11:27.478Z,15.33
2019-02-21T01:13:56.598Z,12.57
2019-02-21T01:16:25.630Z,18.43
2019-02-21T01:18:54.792Z,15.03
2019-02-21T01:21:24.158Z,20.47
2019-02-21T01:23:53.556Z,15.93
2019-02-21T01:26:22.688Z,17.17
2019-02-21T01:28:51.892Z,12.83
2019-02-21T01:31:21.052Z,17.63
2019-02-21T01:33:50.168Z,15.13
2019-02-21T01:36:19.959Z,17.17
2019-02-21T01:38:49.675Z,17.43
2019-02-21T01:41:18.819Z,16.17
2019-02-21T01:43:47.910Z,15.80
2019-02-21T01:46:17.317Z,15.97
2019-02-21T01:48:46.433Z,18.27
2019-02-21T01:51:15.447Z,15.73
2019-02-21T01:53:44.547Z,26.83
2019-02-21T01:56:13.652Z,20.20
2019-02-21T01:58:43.075Z,16.27
2019-02-21T02:01:12.567Z,15.33
2019-02-21T02:03:41.659Z,17.53
2019-02-21T02:06:11.058Z,14.87
2019-02-21T02:08:40.144Z,15.23
2019-02-21T02:11:09.281Z,16.97
2019-02-21T02:13:38.765Z,17.47
2019-02-21T02:16:08.197Z,18.40
2019-02-21T02:18:37.242Z,14.63
2019-02-21T02:21:07.573Z,16.00
2019-02-21T02:23:36.699Z,13.20
2019-02-21T02:26:05.821Z,21.03
2019-02-21T02:28:34.817Z,16.90
2019-02-21T02:31:04.568Z,21.63
2019-02-21T02:33:33.781Z,17.47
2019-02-21T02:36:02.973Z,16.23
2019-02-21T02:38:32.042Z,14.43
2019-02-21T02:41:01.042Z,18.90
2019-02-21T02:43:30.094Z,18.30
2019-02-21T02:45:59.449Z,16.03
2019-02-21T02:48:29.467Z,16.80
2019-02-21T02:50:58.464Z,17.47
2019-02-21T02:53:27.647Z,14.20
2019-02-21T02:55:57.251Z,19.00
2019-02-21T02:58:26.738Z,18.83
2019-02-21T03:00:55.851Z,17.90
2019-02-21T03:03:25.237Z,15.90
2019-02-21T03:05:54.736Z,17.37
2019-02-21T03:08:23.836Z,17.97
2019-02-21T03:10:52.968Z,18.73
2019-02-21T03:13:22.054Z,16.20
2019-02-21T03:15:51.140Z,18.67
2019-02-21T03:18:20.586Z,19.67
2019-02-21T03:20:49.766Z,16.70
2019-02-21T03:23:19.206Z,15.33
2019-02-21T03:25:48.323Z,21.77
2019-02-21T03:28:18.159Z,20.33
2019-02-21T03:30:47.207Z,19.53
2019-02-21T03:33:17.226Z,15.90
2019-02-21T03:35:46.424Z,16.40
2019-02-21T03:38:15.604Z,17.23
2019-02-21T03:40:44.697Z,16.53
2019-02-21T03:43:13.765Z,15.23
2019-02-21T03:45:43.141Z,17.90
2019-02-21T03:48:12.284Z,17.27
2019-02-21T03:50:41.635Z,18.00
2019-02-21T03:53:11.533Z,16.83
2019-02-21T03:55:40.689Z,17.17
2019-02-21T03:58:09.842Z,16.40
2019-02-21T04:00:39.177Z,15.77
2019-02-21T04:03:08.298Z,20.80
2019-02-21T04:05:37.579Z,18.87
2019-02-21T04:08:07.006Z,20.13
2019-02-21T04:10:36.097Z,15.50
2019-02-21T04:13:05.797Z,18.07
2019-02-21T04:15:35.009Z,19.50
2019-02-21T04:18:04.120Z,16.53
2019-02-21T04:20:33.612Z,17.00
2019-02-21T04:23:02.709Z,21.13
2019-02-21T04:25:31.907Z,18.90
2019-02-21T04:28:01.042Z,15.87
2019-02-21T04:30:30.224Z,19.00
2019-02-21T04:32:59.367Z,20.47
2019-02-21T04:35:28.940Z,18.43
2019-02-21T04:37:58.030Z,18.40
2019-02-21T04:40:27.121Z,15.73
2019-02-21T04:42:56.463Z,16.83
2019-02-21T04:45:25.951Z,17.60
2019-02-21T04:47:55.351Z,20.63
2019-02-21T04:50:25.941Z,17.27
2019-02-21T04:52:55.001Z,16.40
2019-02-21T04:55:24.138Z,15.00
2019-02-21T04:57:53.176Z,17.03
2019-02-21T05:00:23.068Z,19.33
2019-02-21T05:02:52.754Z,14.90
2019-02-21T05:05:22.385Z,17.67
2019-02-21T05:07:52.018Z,19.37
2019-02-21T05:10:21.105Z,17.43
2019-02-21T05:12:50.371Z,15.83
2019-02-21T05:15:19.926Z,19.20
2019-02-21T05:17:49.169Z,19.90
2019-02-21T05:20:18.396Z,19.57
2019-02-21T05:22:47.900Z,15.03
2019-02-21T05:25:17.097Z,19.57
2019-02-21T05:28:05.604Z,16.33
2019-02-21T05:30:36.392Z,18.33
2019-02-21T05:33:25.362Z,15.63
2019-02-21T05:36:06.021Z,16.77
2019-02-21T05:38:46.332Z,16.57
2019-02-21T05:41:37.305Z,17.60
2019-02-21T05:44:25.538Z,18.00
2019-02-21T05:47:09.938Z,17.20
2019-02-21T05:49:53.570Z,19.00
2019-02-21T05:52:27.318Z,19.77
2019-02-21T05:55:00.584Z,19.47
2019-02-21T05:57:36.428Z,16.23
2019-02-21T06:00:26.668Z,15.17
2019-02-21T06:03:13.466Z,18.80
2019-02-21T06:06:17.020Z,30.23
2019-02-21T06:09:07.411Z,32.80
2019-02-21T06:11:53.565Z,23.63
2019-02-21T06:14:41.995Z,19.70
2019-02-21T06:17:34.293Z,20.10
2019-02-21T06:20:25.854Z,20.47
2019-02-21T06:23:16.759Z,20.13
2019-02-21T06:25:55.859Z,20.43
2019-02-21T06:28:27.875Z,18.57
2019-02-21T06:31:01.053Z,21.67
2019-02-21T06:33:30.382Z,18.83
2019-02-21T06:36:00.293Z,24.13
2019-02-21T06:38:30.247Z,22.57
2019-02-21T06:41:01.820Z,22.40
2019-02-21T06:43:31.582Z,20.27
2019-02-21T06:46:00.893Z,22.60
2019-02-21T06:48:30.352Z,22.77
2019-02-21T06:50:59.586Z,20.67
2019-02-21T06:53:29.046Z,23.17
2019-02-21T06:55:58.558Z,19.43
2019-02-21T06:58:28.098Z,19.13
2019-02-21T07:00:57.225Z,21.60
2019-02-21T07:03:26.307Z,23.60
2019-02-21T07:05:57.503Z,22.30
2019-02-21T07:08:26.636Z,23.37
2019-02-21T07:11:05.871Z,19.10
2019-02-21T07:13:27.163Z,20.27
2019-02-21T07:15:58.553Z,22.30
2019-02-21T07:18:28.909Z,22.97
2019-02-21T07:20:58.873Z,22.20
2019-02-21T07:23:40.615Z,19.87
2019-02-21T07:26:07.054Z,23.20
2019-02-21T07:28:36.889Z,25.73
2019-02-21T07:31:06.360Z,22.13
2019-02-21T07:33:35.873Z,21.20
2019-02-21T07:36:05.402Z,22.00
2019-02-21T07:38:35.184Z,21.03
2019-02-21T07:41:04.807Z,27.37
2019-02-21T07:43:34.883Z,27.13
2019-02-21T07:46:06.836Z,20.20
2019-02-21T07:48:36.506Z,21.63
2019-02-21T07:51:06.806Z,23.17
2019-02-21T07:53:36.962Z,23.70
2019-02-21T07:56:06.766Z,23.57
2019-02-21T07:58:36.334Z,23.13
2019-02-21T08:01:06.588Z,26.57
2019-02-21T08:03:44.206Z,26.13
2019-02-21T08:06:08.311Z,26.23
2019-02-21T08:08:37.802Z,24.00
2019-02-21T08:11:07.381Z,25.13
2019-02-21T08:13:37.004Z,24.20
2019-02-21T08:16:06.454Z,22.40
2019-02-21T08:18:36.172Z,24.40
2019-02-21T08:21:06.155Z,23.03
2019-02-21T08:23:35.477Z,21.23
2019-02-21T08:26:05.964Z,21.27
2019-02-21T08:28:35.427Z,22.40
2019-02-21T08:31:05.278Z,31.07
2019-02-21T08:33:58.289Z,24.53
2019-02-21T08:36:21.701Z,24.53
2019-02-21T08:38:50.758Z,28.87
2019-02-21T08:41:20.016Z,22.73
2019-02-21T08:43:49.081Z,23.17
2019-02-21T08:46:18.426Z,26.10
2019-02-21T08:48:48.018Z,24.40
2019-02-21T08:51:18.473Z,21.47
2019-02-21T08:53:47.820Z,25.53
2019-02-21T08:56:20.534Z,29.30
2019-02-21T08:58:54.035Z,27.33
2019-02-21T09:01:23.830Z,26.60
2019-02-21T09:03:53.040Z,26.87
2019-02-21T09:06:24.689Z,32.97
2019-02-21T09:08:53.876Z,27.90
2019-02-21T09:11:23.345Z,25.87
2019-02-21T09:13:52.453Z,29.30
2019-02-21T09:16:21.786Z,28.87
2019-02-21T09:18:51.997Z,23.83
2019-02-21T09:21:21.220Z,26.67
2019-02-21T09:23:50.674Z,23.13
2019-02-21T09:26:21.667Z,21.60
2019-02-21T09:28:51.090Z,24.33
2019-02-21T09:31:20.376Z,26.83
2019-02-21T09:33:49.534Z,25.70
2019-02-21T09:36:19.010Z,21.60
2019-02-21T09:38:49.119Z,27.67
2019-02-21T09:41:18.205Z,24.43
2019-02-21T09:43:47.294Z,24.10
2019-02-21T09:46:16.332Z,26.07
2019-02-21T09:48:45.949Z,27.33
2019-02-21T09:51:18.010Z,24.57
2019-02-21T09:53:46.516Z,25.43
2019-02-21T09:56:16.183Z,25.37
2019-02-21T09:58:46.037Z,29.83
2019-02-21T10:01:15.196Z,27.23
2019-02-21T10:03:44.565Z,27.13
2019-02-21T10:06:13.604Z,29.40
2019-02-21T10:08:42.595Z,24.63
2019-02-21T10:11:11.649Z,27.13
2019-02-21T10:13:40.807Z,22.33
2019-02-21T10:16:10.182Z,26.47
2019-02-21T10:18:39.125Z,24.83
2019-02-21T10:21:08.223Z,26.87
2019-02-21T10:23:37.972Z,29.20
2019-02-21T10:26:07.293Z,30.17
2019-02-21T10:28:36.908Z,26.03
2019-02-21T10:31:05.955Z,26.57
2019-02-21T10:33:34.868Z,26.73
2019-02-21T10:36:03.984Z,27.17
2019-02-21T10:38:33.026Z,29.87
2019-02-21T10:41:02.145Z,30.53
2019-02-21T10:43:31.217Z,29.13
2019-02-21T10:46:00.798Z,26.60
2019-02-21T10:48:30.258Z,32.83
2019-02-21T10:50:59.488Z,32.47
2019-02-21T10:53:28.989Z,32.43
2019-02-21T10:55:58.800Z,32.73
2019-02-21T10:58:28.476Z,31.37
2019-02-21T11:00:57.535Z,29.87
2019-02-21T11:03:26.693Z,30.47
2019-02-21T11:05:55.792Z,30.60
2019-02-21T11:08:24.888Z,30.80
2019-02-21T11:10:53.925Z,29.47
2019-02-21T11:13:22.920Z,34.77
2019-02-21T11:15:52.326Z,31.27
2019-02-21T11:18:21.654Z,30.47
2019-02-21T11:20:50.819Z,28.53
2019-02-21T11:23:19.934Z,31.90
2019-02-21T11:25:48.969Z,34.30
2019-02-21T11:28:17.931Z,29.30
2019-02-21T11:30:47.225Z,37.17
2019-02-21T11:33:16.769Z,32.77
2019-02-21T11:35:45.954Z,27.27
2019-02-21T11:38:15.078Z,28.40
2019-02-21T11:40:44.361Z,30.97
2019-02-21T11:43:13.506Z,31.17
2019-02-21T11:45:53.194Z,30.33
2019-02-21T11:48:13.810Z,29.63
2019-02-21T11:50:43.632Z,29.80
2019-02-21T11:53:12.904Z,35.73
2019-02-21T11:55:42.820Z,33.03
2019-02-21T11:58:11.945Z,31.37
2019-02-21T12:00:41.127Z,29.97
2019-02-21T12:03:10.233Z,30.67
2019-02-21T12:05:39.634Z,31.37
2019-02-21T12:08:08.987Z,30.53
2019-02-21T12:10:38.105Z,28.73
2019-02-21T12:13:07.667Z,30.70
2019-02-21T12:15:36.905Z,27.80
2019-02-21T12:18:06.023Z,31.17
2019-02-21T12:20:35.285Z,31.97
2019-02-21T12:23:04.564Z,29.73
2019-02-21T12:25:34.175Z,34.50
2019-02-21T12:28:03.376Z,27.33
2019-02-21T12:30:33.465Z,27.63
2019-02-21T12:33:03.287Z,29.50
2019-02-21T12:35:32.968Z,27.97
2019-02-21T12:38:02.705Z,26.00
2019-02-21T12:40:32.109Z,23.73
2019-02-21T12:43:01.857Z,20.50
2019-02-21T12:45:31.786Z,25.07
2019-02-21T12:48:01.412Z,23.67
2019-02-21T12:50:31.285Z,26.70
2019-02-21T12:53:00.395Z,23.60
2019-02-21T12:55:31.734Z,27.73
2019-02-21T12:58:02.069Z,25.43
2019-02-21T13:00:31.296Z,25.77
2019-02-21T13:03:01.501Z,26.10
2019-02-21T13:05:40.474Z,26.30
2019-02-21T13:08:02.198Z,25.23
2019-02-21T13:10:34.806Z,21.57
2019-02-21T13:13:03.419Z,25.63
2019-02-21T13:15:32.862Z,27.73
2019-02-21T13:18:02.538Z,27.17
2019-02-21T13:20:32.140Z,25.63
2019-02-21T13:23:01.576Z,25.90
2019-02-21T13:25:30.616Z,27.80
2019-02-21T13:27:59.737Z,26.03
2019-02-21T13:30:28.960Z,28.37
2019-02-21T13:32:58.483Z,26.00
2019-02-21T13:35:29.365Z,25.97
2019-02-21T13:37:58.709Z,24.90
2019-02-21T13:40:27.898Z,25.10
2019-02-21T13:42:57.787Z,26.33
2019-02-21T13:45:26.807Z,26.23
2019-02-21T13:47:55.891Z,25.43
2019-02-21T13:50:24.975Z,24.27
2019-02-21T13:52:54.123Z,24.17
2019-02-21T13:55:23.167Z,28.50
2019-02-21T13:57:52.257Z,21.50
2019-02-21T14:00:21.415Z,28.23
2019-02-21T14:02:50.577Z,23.50
2019-02-21T14:05:19.956Z,24.10
2019-02-21T14:07:49.430Z,27.67
2019-02-21T14:10:18.519Z,24.07
2019-02-21T14:12:47.926Z,27.40
2019-02-21T14:15:18.968Z,22.50
2019-02-21T14:17:48.893Z,21.80
2019-02-21T14:20:18.050Z,26.27
2019-02-21T14:22:47.300Z,24.50
2019-02-21T14:25:16.686Z,25.07
2019-02-21T14:27:45.681Z,25.10
2019-02-21T14:30:16.407Z,28.87
2019-02-21T14:32:45.798Z,25.20
2019-02-21T14:35:15.402Z,22.30
2019-02-21T14:37:44.530Z,24.33
2019-02-21T14:40:14.230Z,24.00
2019-02-21T14:42:43.287Z,24.37
2019-02-21T14:45:13.989Z,21.80
2019-02-21T14:47:43.083Z,24.43
2019-02-21T14:50:12.171Z,26.57
2019-02-21T14:52:41.389Z,26.83
2019-02-21T14:55:12.413Z,26.03
2019-02-21T14:57:42.817Z,24.50
2019-02-21T15:00:16.477Z,28.13
2019-02-21T15:02:46.757Z,27.90
2019-02-21T15:05:18.757Z,22.47
2019-02-21T15:07:48.358Z,24.10
2019-02-21T15:10:17.615Z,29.53
2019-02-21T15:12:47.124Z,21.10
2019-02-21T15:15:17.434Z,23.97
2019-02-21T15:17:47.412Z,27.37
2019-02-21T15:20:17.447Z,29.23
2019-02-21T15:22:46.752Z,19.77
2019-02-21T15:25:16.020Z,26.40
2019-02-21T15:27:45.268Z,25.50
2019-02-21T15:30:16.486Z,22.70
2019-02-21T15:32:46.183Z,24.13
2019-02-21T15:35:15.501Z,23.50
2019-02-21T15:37:45.144Z,24.97
2019-02-21T15:40:14.916Z,22.43
2019-02-21T15:42:44.471Z,28.13
2019-02-21T15:45:22.814Z,27.00
2019-02-21T15:47:47.264Z,26.13
2019-02-21T15:50:19.536Z,28.17
2019-02-21T15:52:47.507Z,23.83
2019-02-21T15:55:17.015Z,26.83
2019-02-21T15:57:47.031Z,24.87
2019-02-21T16:00:17.977Z,26.30
2019-02-21T16:02:56.185Z,22.03
2019-02-21T16:05:26.407Z,23.80
2019-02-21T16:07:56.210Z,25.90
2019-02-21T16:10:25.592Z,23.50
2019-02-21T16:13:04.225Z,26.90
2019-02-21T16:15:32.984Z,27.00
2019-02-21T16:18:02.731Z,29.17
2019-02-21T16:20:33.520Z,26.47
2019-02-21T16:23:04.028Z,26.17
2019-02-21T16:25:36.829Z,23.37
2019-02-21T16:28:06.170Z,29.67
2019-02-21T16:30:36.602Z,27.90
2019-02-21T16:33:06.767Z,26.20
2019-02-21T16:35:36.778Z,27.10
2019-02-21T16:38:06.970Z,25.07
2019-02-21T16:40:37.023Z,29.60
2019-02-21T16:43:06.590Z,24.33
2019-02-21T16:45:43.471Z,29.67
2019-02-21T16:48:08.447Z,29.20
2019-02-21T16:50:38.332Z,29.90
2019-02-21T16:53:08.005Z,27.40
2019-02-21T16:55:37.900Z,29.50
2019-02-21T16:58:08.075Z,25.27
2019-02-21T17:00:50.401Z,30.13
2019-02-21T17:03:09.676Z,29.40
2019-02-21T17:05:39.206Z,30.07
2019-02-21T17:08:08.761Z,31.63
2019-02-21T17:10:39.151Z,28.57
2019-02-21T17:13:08.160Z,29.07
2019-02-21T17:15:37.335Z,27.00
2019-02-21T17:18:06.499Z,30.27
2019-02-21T17:20:36.085Z,27.63
2019-02-21T17:23:05.618Z,30.20
2019-02-21T17:25:35.694Z,27.67
2019-02-21T17:28:05.366Z,33.37
2019-02-21T17:30:34.662Z,28.13
2019-02-21T17:33:03.800Z,32.33
2019-02-21T17:35:32.966Z,31.60
2019-02-21T17:38:02.131Z,28.80
2019-02-21T17:40:31.262Z,27.20
2019-02-21T17:43:00.341Z,28.83
2019-02-21T17:45:29.731Z,31.23
2019-02-21T17:47:58.837Z,27.67
2019-02-21T17:50:27.997Z,34.40
2019-02-21T17:52:57.056Z,28.27
2019-02-21T17:55:26.058Z,30.53
2019-02-21T17:57:55.528Z,42.03
2019-02-21T18:00:29.390Z,33.53
2019-02-21T18:02:58.744Z,36.47
2019-02-21T18:05:27.739Z,29.10
2019-02-21T18:07:56.736Z,26.67
2019-02-21T18:10:26.089Z,23.87
2019-02-21T18:12:55.244Z,31.17
2019-02-21T18:15:25.097Z,24.53
2019-02-21T18:17:54.173Z,30.50
2019-02-21T18:20:23.324Z,24.80
2019-02-21T18:22:52.717Z,22.63
2019-02-21T18:25:31.538Z,24.13
2019-02-21T18:28:00.641Z,23.43
2019-02-21T18:30:30.115Z,23.27
2019-02-21T18:32:59.174Z,22.97
2019-02-21T18:35:28.237Z,23.00
2019-02-21T18:37:57.427Z,26.60
2019-02-21T18:40:26.636Z,24.43
2019-02-21T18:42:56.007Z,26.80
2019-02-21T18:45:25.256Z,24.07
2019-02-21T18:47:54.317Z,23.73
2019-02-21T18:50:23.410Z,24.73
2019-02-21T18:52:53.774Z,28.47
2019-02-21T18:55:22.860Z,23.07
2019-02-21T18:57:51.933Z,27.13
2019-02-21T19:00:22.579Z,24.40
2019-02-21T19:02:51.874Z,25.43
2019-02-21T19:05:21.219Z,21.97
2019-02-21T19:08:00.534Z,28.83
2019-02-21T19:10:21.463Z,24.10
2019-02-21T19:12:50.473Z,25.23
2019-02-21T19:15:19.814Z,21.77
2019-02-21T19:17:49.210Z,28.53
2019-02-21T19:20:18.830Z,26.13
2019-02-21T19:22:48.155Z,30.03
2019-02-21T19:25:17.304Z,33.07
2019-02-21T19:27:46.893Z,24.20
2019-02-21T19:30:25.541Z,26.57
2019-02-21T19:32:54.171Z,25.80
2019-02-21T19:35:23.409Z,33.43
2019-02-21T19:37:52.676Z,30.40
2019-02-21T19:40:21.762Z,31.13
2019-02-21T19:42:50.842Z,30.63
2019-02-21T19:45:19.994Z,27.10
2019-02-21T19:47:49.030Z,26.53
2019-02-21T19:50:18.536Z,32.23
2019-02-21T19:52:47.914Z,27.00
2019-02-21T19:55:17.072Z,61.43
2019-02-21T19:57:46.601Z,44.00
2019-02-21T20:00:17.901Z,52.10
2019-02-21T20:02:46.908Z,31.33
2019-02-21T20:05:16.092Z,34.10
2019-02-21T20:07:45.292Z,29.37
2019-02-21T20:10:14.677Z,33.13
2019-02-21T20:12:43.640Z,27.43
2019-02-21T20:15:12.764Z,32.37
2019-02-21T20:17:42.099Z,32.67
2019-02-21T20:20:12.420Z,34.53
2019-02-21T20:22:41.467Z,34.53
2019-02-21T20:25:10.820Z,34.20
2019-02-21T20:27:39.708Z,32.83
2019-02-21T20:30:10.914Z,36.63
2019-02-21T20:32:40.851Z,31.30
2019-02-21T20:35:09.955Z,34.90
2019-02-21T20:37:39.227Z,33.47
2019-02-21T20:40:08.583Z,33.60
2019-02-21T20:42:37.739Z,35.07
2019-02-21T20:45:07.820Z,34.13
2019-02-21T20:47:37.193Z,28.23
2019-02-21T20:50:06.746Z,41.63
2019-02-21T20:52:36.498Z,31.07
2019-02-21T20:55:06.214Z,29.90
2019-02-21T20:57:35.496Z,31.13
2019-02-21T21:00:05.503Z,32.07
2019-02-21T21:02:34.979Z,41.50
2019-02-21T21:05:04.529Z,36.57
2019-02-21T21:07:33.806Z,33.27
2019-02-21T21:10:03.213Z,35.40
2019-02-21T21:12:32.115Z,36.03
2019-02-21T21:15:01.003Z,32.17
2019-02-21T21:17:30.128Z,34.20
2019-02-21T21:19:59.149Z,38.73
2019-02-21T21:22:28.375Z,36.30
2019-02-21T21:24:57.315Z,30.77
2019-02-21T21:27:26.564Z,34.93
2019-02-21T21:29:55.461Z,30.50
2019-02-21T21:32:24.435Z,37.73
2019-02-21T21:34:53.417Z,36.77
2019-02-21T21:37:22.305Z,37.53
2019-02-21T21:39:51.394Z,35.20
2019-02-21T21:42:20.445Z,39.80
2019-02-21T21:44:49.830Z,41.40
2019-02-21T21:47:19.197Z,34.80
2019-02-21T21:49:48.634Z,37.13
2019-02-21T21:52:17.648Z,35.83
2019-02-21T21:54:47.024Z,37.70
2019-02-21T21:57:16.656Z,36.60
2019-02-21T21:59:45.727Z,36.27
2019-02-21T22:02:14.761Z,38.90
2019-02-21T22:04:44.096Z,36.90
2019-02-21T22:07:13.069Z,42.23
2019-02-21T22:09:42.392Z,37.53
2019-02-21T22:12:11.713Z,36.13
2019-02-21T22:14:40.974Z,42.17
2019-02-21T22:17:10.073Z,38.80
2019-02-21T22:19:39.358Z,40.70
2019-02-21T22:22:08.483Z,45.73
2019-02-21T22:24:37.437Z,40.90
2019-02-21T22:27:06.926Z,40.67
2019-02-21T22:29:36.200Z,36.77
2019-02-21T22:32:05.201Z,39.27
2019-02-21T22:34:34.171Z,39.83
2019-02-21T22:37:03.523Z,45.70
2019-02-21T22:39:32.661Z,42.13
2019-02-21T22:42:01.722Z,41.73
2019-02-21T22:44:30.741Z,39.23
2019-02-21T22:46:59.681Z,43.03
2019-02-21T22:49:29.006Z,39.83
2019-02-21T22:51:57.911Z,40.27
2019-02-21T22:54:27.451Z,40.63
2019-02-21T22:56:56.431Z,52.10
2019-02-21T22:59:25.995Z,41.43
2019-02-21T23:01:56.287Z,39.90
2019-02-21T23:04:45.852Z,43.03
2019-02-21T23:07:51.825Z,49.97
2019-02-21T23:10:21.246Z,39.80
2019-02-21T23:12:50.333Z,41.67
2019-02-21T23:15:19.361Z,39.40
2019-02-21T23:17:48.540Z,38.47
2019-02-21T23:20:17.866Z,51.33
2019-02-21T23:22:47.233Z,36.70
2019-02-21T23:25:16.229Z,40.63
2019-02-21T23:27:45.834Z,43.43
2019-02-21T23:30:14.867Z,40.17
2019-02-21T23:32:43.905Z,40.70
2019-02-21T23:35:19.319Z,37.33
2019-02-21T23:37:49.720Z,48.40
2019-02-21T23:40:18.684Z,44.57
2019-02-21T23:42:47.582Z,40.90
2019-02-21T23:45:16.589Z,39.03
2019-02-21T23:47:49.626Z,42.73
2019-02-21T23:50:16.337Z,42.97
2019-02-21T23:52:45.512Z,40.47
2019-02-21T23:55:14.546Z,45.97
2019-02-21T23:57:43.572Z,44.20
